• Join FlightAware (Why Join?)
  • Login
  • US Flag 
06:38AM EDT


 

Airport Tracker/Info


-or-


 

Live Flight TrackerFlight Track Log ✈ N95445 ✈ 14-May-2013 ✈ KSKY - 1G3

Flight Track Log - Related Links

Times and Time Zones

All times are in EDT time to prevent confusion due to time zone crossing. See the N95445 flight status page for this flight to view local times or setup timezone preferences in your user account.

Time Position Orientation Groundspeed Altitude Reporting Facility
EDT Latitude Longitude Course Direction KTS MPH feet Rate Location/Type
05:45PM 41.3683 -82.3844 107° East 103 119 3,500  Level Cleveland Center
05:46PM 41.3647 -82.3483 98° East 104 120 3,600  Climbing Cleveland Center
05:47PM 41.3569 -82.3067 104° East 107 123 3,600  Level Cleveland Center
05:48PM 41.3431 -82.2675 115° Southeast 103 119 3,700  Climbing Cleveland Center
05:49PM 41.3247 -82.2422 134° Southeast 96 110 3,600 -120 Descending Cleveland Center
05:50PM 41.2831 -81.9844 106° East  Level Estimated
05:50PM 41.3064 -82.2111 128° Southeast 98 113 3,500  Level Cleveland Center
05:51PM 41.2731 -81.9407 107° East  Level Estimated
05:51PM 41.2922 -82.1806 122° Southeast 100 115 3,600  Level Cleveland Center
05:52PM 41.2800 -82.1469 116° Southeast 101 116 3,500  Descending Cleveland Center
05:53PM 41.2703 -82.1108 110° East 100 115 3,600  Climbing Cleveland Center
05:54PM 41.2539 -82.0719 119° Southeast 105 121 3,500  Descending Cleveland Center
05:55PM 41.2458 -82.0494 115° Southeast 99 114 3,600  Climbing Cleveland Center
05:56PM 41.2278 -82.0050 118° Southeast 105 121 3,600 -60 Level Cleveland Center
05:58PM 41.2219 -81.9661 101° East 105 121 3,500 -60 Descending Cleveland Center
05:58PM 41.2142 -81.9328 107° East 104 120 3,500  Level Cleveland Center
05:59PM 41.2081 -81.9025 105° East 99 114 3,500  Level Cleveland Center
06:00PM 41.1961 -81.8608 111° Southeast 101 116 3,500  Level Cleveland Center
06:01PM 41.1903 -81.8275 103° East 99 114 3,500  Level Cleveland Center
06:02PM 41.1864 -81.7944 99° East 100 115 3,500  Level Cleveland Center
06:03PM 41.1869 -81.7531 89° East 104 120 3,500 -60 Level Cleveland Center
06:05PM 41.1872 -81.7117 89° East 105 121 3,400 -120 Descending Cleveland Center
06:06PM 41.1832 -81.6663 114° Southeast  Level FlightAware Approximate